Time;durP1;ratioP1;P1;durP2;ratioP2;P2;SDS_P1;SDS_P2;PMS_P1;PMS_P2;Temp;Humidity;BMP_temperature;BMP_pressure;BME280_temperature;BME280_humidity;BME280_pressure;Samples;Min_cycle;Max_cycle;Signal;HPM_P1;HPM_P2
2023/05/16 00:01:49;;;;;;;0.43;0.43;;;7.00;99.90;;;;;;5030940;28;20053;-84
2023/05/16 00:04:16;;;;;;;0.00;0.00;;;7.00;99.90;;;;;;5033973;28;20492;-84
2023/05/16 00:06:42;;;;;;;1.10;0.80;;;6.90;99.90;;;;;;5043750;28;20084;-85
2023/05/16 00:09:07;;;;;;;0.35;0.35;;;6.90;99.90;;;;;;5056275;28;20422;-84
2023/05/16 00:11:33;;;;;;;0.00;0.00;;;6.80;99.90;;;;;;5042307;28;20049;-84
2023/05/16 00:14:00;;;;;;;0.00;0.00;;;6.80;99.90;;;;;;5038908;28;20045;-86
2023/05/16 00:16:28;;;;;;;0.30;0.30;;;6.80;99.90;;;;;;5054532;28;20064;-85
2023/05/16 00:18:56;;;;;;;1.35;0.80;;;6.90;99.90;;;;;;5056457;28;20056;-84
2023/05/16 00:21:22;;;;;;;0.00;0.00;;;7.00;99.90;;;;;;5047012;28;20484;-84
2023/05/16 00:23:48;;;;;;;0.10;0.10;;;7.00;99.90;;;;;;5036035;28;20084;-84
2023/05/16 00:26:13;;;;;;;0.32;0.32;;;6.90;99.90;;;;;;5036746;28;20041;-84
2023/05/16 00:28:39;;;;;;;0.00;0.00;;;6.90;99.90;;;;;;5037227;28;20103;-84
2023/05/16 00:31:05;;;;;;;0.00;0.00;;;6.80;99.90;;;;;;5036925;28;20539;-84
2023/05/16 00:33:30;;;;;;;0.00;0.00;;;6.70;99.90;;;;;;5036519;28;20049;-84
2023/05/16 00:35:56;;;;;;;0.20;0.20;;;7.60;99.90;;;;;;5054503;28;20578;-84
2023/05/16 00:38:23;;;;;;;0.00;0.00;;;6.70;99.90;;;;;;5055500;28;20182;-84
2023/05/16 00:40:49;;;;;;;0.47;0.25;;;6.70;99.90;;;;;;5056236;28;20408;-83
2023/05/16 00:43:14;;;;;;;0.00;0.00;;;6.70;99.90;;;;;;5055396;28;20045;-84
2023/05/16 00:45:40;;;;;;;0.50;0.50;;;6.60;99.90;;;;;;5036944;28;20064;-84
2023/05/16 00:48:06;;;;;;;0.10;0.10;;;6.50;99.90;;;;;;5035681;28;20049;-84
2023/05/16 00:50:33;;;;;;;0.00;0.00;;;6.50;99.90;;;;;;5035534;28;20072;-84
2023/05/16 00:52:59;;;;;;;1.20;0.90;;;6.50;99.90;;;;;;5041534;28;20053;-83
2023/05/16 00:55:25;;;;;;;0.00;0.00;;;6.40;99.90;;;;;;5043999;28;20043;-82
2023/05/16 00:57:51;;;;;;;0.47;0.30;;;6.30;99.90;;;;;;5049665;28;20438;-84
2023/05/16 01:00:18;;;;;;;0.00;0.00;;;6.20;99.90;;;;;;5053963;28;20511;-84
2023/05/16 01:02:45;;;;;;;0.10;0.10;;;6.10;99.90;;;;;;5058335;28;20053;-83
2023/05/16 01:05:11;;;;;;;1.30;0.55;;;6.00;99.90;;;;;;5056386;28;20422;-84
2023/05/16 01:07:37;;;;;;;0.00;0.00;;;6.00;99.90;;;;;;5057826;28;20768;-84
2023/05/16 01:10:05;;;;;;;0.00;0.00;;;6.00;99.90;;;;;;5056612;28;20044;-84
2023/05/16 01:12:31;;;;;;;0.35;0.35;;;5.90;99.90;;;;;;5054976;28;20049;-85
2023/05/16 01:15:05;;;;;;;0.05;0.05;;;6.00;99.90;;;;;;5055912;28;20053;-84
2023/05/16 01:17:43;;;;;;;0.00;0.00;;;5.90;99.90;;;;;;5056244;28;20045;-85
2023/05/16 01:20:15;;;;;;;0.00;0.00;;;5.90;99.90;;;;;;5055851;28;20049;-85
2023/05/16 01:22:52;;;;;;;0.88;0.80;;;5.90;99.90;;;;;;5055862;28;20053;-84
2023/05/16 01:25:57;;;;;;;0.00;0.00;;;6.00;99.90;;;;;;5043382;28;20480;-84
2023/05/16 01:28:23;;;;;;;0.00;0.00;;;6.20;99.90;;;;;;5036495;28;20045;-84
2023/05/16 01:30:50;;;;;;;0.32;0.32;;;6.30;99.90;;;;;;5036616;28;20087;-85
2023/05/16 01:33:16;;;;;;;0.00;0.00;;;6.40;99.90;;;;;;5036270;28;20514;-85
2023/05/16 01:36:03;;;;;;;0.00;0.00;;;6.40;99.90;;;;;;5044525;28;20054;-84
2023/05/16 01:38:53;;;;;;;0.10;0.10;;;6.20;99.90;;;;;;5035376;28;20057;-84
2023/05/16 01:41:54;;;;;;;0.00;0.00;;;6.00;99.90;;;;;;5034907;28;20123;-86
2023/05/16 01:44:30;;;;;;;0.15;0.15;;;6.00;99.90;;;;;;5031850;28;20441;-83
2023/05/16 01:46:59;;;;;;;0.00;0.00;;;6.00;99.90;;;;;;5054829;28;20055;-83
2023/05/16 01:49:54;;;;;;;0.00;0.00;;;5.80;99.90;;;;;;5055167;28;20041;-84
2023/05/16 01:52:32;;;;;;;0.00;0.00;;;5.80;99.90;;;;;;5054735;28;20515;-84
2023/05/16 01:54:59;;;;;;;0.55;0.55;;;5.80;99.90;;;;;;5040244;28;20048;-84
2023/05/16 01:57:27;;;;;;;0.00;0.00;;;5.80;99.90;;;;;;5039692;28;20087;-84
2023/05/16 01:59:53;;;;;;;0.10;0.10;;;5.70;99.90;;;;;;5033313;28;20496;-84
2023/05/16 02:02:19;;;;;;;0.00;0.00;;;5.60;99.90;;;;;;5034253;28;20076;-83
2023/05/16 02:04:45;;;;;;;0.00;0.00;;;5.50;99.90;;;;;;5041468;28;20041;-83
2023/05/16 02:07:13;;;;;;;0.00;0.00;;;5.40;99.90;;;;;;5054193;28;20056;-84
2023/05/16 02:09:39;;;;;;;0.20;0.20;;;5.40;99.90;;;;;;5053483;28;20045;-85
2023/05/16 02:12:05;;;;;;;0.00;0.00;;;5.40;99.90;;;;;;5062188;28;20084;-85
2023/05/16 02:14:31;;;;;;;0.00;0.00;;;5.30;99.90;;;;;;5067866;28;20009;-84
2023/05/16 02:16:57;;;;;;;0.00;0.00;;;5.20;99.90;;;;;;5051526;28;20032;-84
2023/05/16 02:19:22;;;;;;;2.53;1.25;;;5.20;99.90;;;;;;5051699;28;20051;-84
2023/05/16 02:21:48;;;;;;;0.00;0.00;;;5.20;99.90;;;;;;5051700;28;20029;-84
2023/05/16 02:24:14;;;;;;;0.00;0.00;;;5.20;99.90;;;;;;5051894;28;20026;-84
2023/05/16 02:26:40;;;;;;;3.83;1.13;;;5.20;99.90;;;;;;5051399;28;20052;-84
2023/05/16 02:29:05;;;;;;;2.10;1.00;;;5.10;99.90;;;;;;5042415;28;20045;-84
2023/05/16 02:31:33;;;;;;;0.38;0.38;;;5.00;99.90;;;;;;5035339;28;20081;-84
2023/05/16 02:33:59;;;;;;;0.00;0.00;;;4.90;99.90;;;;;;5035109;28;20057;-84
2023/05/16 02:36:25;;;;;;;0.03;0.03;;;4.80;99.90;;;;;;5035545;28;20049;-84
2023/05/16 02:38:50;;;;;;;0.00;0.00;;;4.70;99.90;;;;;;5035234;28;20042;-83
2023/05/16 02:41:16;;;;;;;0.00;0.00;;;4.70;99.90;;;;;;5036061;28;20045;-84
2023/05/16 02:43:43;;;;;;;0.00;0.00;;;4.80;99.90;;;;;;5035808;28;20049;-84
2023/05/16 02:46:32;;;;;;;0.03;0.03;;;4.90;99.90;;;;;;5036613;28;20087;-84
2023/05/16 02:48:58;;;;;;;0.00;0.00;;;5.00;99.90;;;;;;5036032;28;20042;-84
2023/05/16 02:51:26;;;;;;;0.00;0.00;;;5.10;99.90;;;;;;5036233;28;20515;-84
2023/05/16 02:53:53;;;;;;;0.00;0.00;;;5.30;99.90;;;;;;5046037;28;20043;-84
2023/05/16 02:56:20;;;;;;;0.00;0.00;;;5.40;99.90;;;;;;5037170;28;20085;-84
2023/05/16 02:58:48;;;;;;;0.32;0.32;;;5.50;99.90;;;;;;5034106;28;20092;-85
2023/05/16 03:01:14;;;;;;;0.00;0.00;;;5.60;99.90;;;;;;5036987;28;20057;-85
2023/05/16 03:03:40;;;;;;;0.00;0.00;;;5.50;99.90;;;;;;5035776;28;20041;-83
2023/05/16 03:06:05;;;;;;;7.22;0.65;;;5.40;99.90;;;;;;5041931;28;20498;-83
2023/05/16 03:08:32;;;;;;;0.30;0.30;;;5.30;99.90;;;;;;5051970;28;20645;-85
2023/05/16 03:10:58;;;;;;;0.00;0.00;;;5.20;99.90;;;;;;5054317;28;20399;-84
2023/05/16 03:13:23;;;;;;;0.00;0.00;;;5.10;99.90;;;;;;5054171;28;20045;-84
2023/05/16 03:15:49;;;;;;;15.88;1.00;;;5.10;99.90;;;;;;5054285;28;20133;-83
2023/05/16 03:18:15;;;;;;;0.00;0.00;;;5.00;99.90;;;;;;5054580;28;20076;-84
2023/05/16 03:20:41;;;;;;;0.00;0.00;;;4.90;99.90;;;;;;5053320;28;20578;-85
2023/05/16 03:23:07;;;;;;;0.00;0.00;;;5.00;99.90;;;;;;5054984;28;20124;-86
2023/05/16 03:25:36;;;;;;;0.17;0.17;;;5.00;99.90;;;;;;5053837;28;20052;-84
2023/05/16 03:28:06;;;;;;;1.55;0.38;;;5.20;99.90;;;;;;5055109;28;20073;-84
2023/05/16 03:30:33;;;;;;;0.00;0.00;;;5.30;99.90;;;;;;5055112;28;20520;-83
2023/05/16 03:32:59;;;;;;;0.20;0.20;;;5.40;99.90;;;;;;5050525;28;20090;-83
2023/05/16 03:35:25;;;;;;;1.13;0.55;;;5.40;99.90;;;;;;5038056;28;20041;-84
2023/05/16 03:37:50;;;;;;;0.25;0.25;;;5.30;99.90;;;;;;5026860;28;20053;-83
2023/05/16 03:40:16;;;;;;;0.10;0.10;;;5.20;99.90;;;;;;5028091;28;20526;-84
2023/05/16 03:42:42;;;;;;;0.00;0.00;;;5.90;99.90;;;;;;5033248;28;20041;-84
2023/05/16 03:45:08;;;;;;;0.00;0.00;;;5.00;99.90;;;;;;5043576;28;20065;-84
2023/05/16 03:47:34;;;;;;;0.10;0.10;;;4.90;99.90;;;;;;5030689;28;20500;-83
2023/05/16 03:49:59;;;;;;;0.00;0.00;;;4.80;99.90;;;;;;5032043;28;20107;-83
2023/05/16 03:52:25;;;;;;;3.30;1.10;;;4.80;99.90;;;;;;5031807;28;20041;-83
2023/05/16 03:54:51;;;;;;;0.73;0.65;;;4.80;99.90;;;;;;5035351;28;20044;-83
2023/05/16 03:57:16;;;;;;;0.00;0.00;;;4.80;99.90;;;;;;5052339;28;20049;-83
2023/05/16 03:59:42;;;;;;;0.00;0.00;;;4.80;99.90;;;;;;5051929;28;20465;-83
2023/05/16 04:02:08;;;;;;;0.00;0.00;;;4.80;99.90;;;;;;5051309;28;20051;-84
2023/05/16 04:04:33;;;;;;;0.08;0.08;;;4.80;99.90;;;;;;5050990;28;20045;-84
2023/05/16 04:07:00;;;;;;;0.00;0.00;;;4.80;99.90;;;;;;5051240;28;20045;-84
2023/05/16 04:09:26;;;;;;;0.20;0.20;;;4.90;99.90;;;;;;5051389;28;20179;-84
2023/05/16 04:11:51;;;;;;;0.10;0.10;;;5.00;99.90;;;;;;5051438;28;20041;-84
2023/05/16 04:14:17;;;;;;;0.00;0.00;;;5.20;99.90;;;;;;5052705;28;20105;-83
2023/05/16 04:16:43;;;;;;;0.00;0.00;;;5.20;99.90;;;;;;5031811;28;20179;-83
2023/05/16 04:19:08;;;;;;;0.00;0.00;;;5.30;99.90;;;;;;5031662;28;20045;-83
2023/05/16 04:21:35;;;;;;;0.00;0.00;;;5.30;99.90;;;;;;5030153;28;20041;-84
2023/05/16 04:24:01;;;;;;;0.15;0.08;;;5.30;99.90;;;;;;5029789;28;20132;-84
2023/05/16 04:26:26;;;;;;;0.10;0.10;;;5.30;99.90;;;;;;5030491;28;20199;-84
2023/05/16 04:28:52;;;;;;;0.00;0.00;;;5.30;99.90;;;;;;5048132;28;20508;-83
2023/05/16 04:31:18;;;;;;;0.32;0.32;;;5.30;99.90;;;;;;5049864;28;20124;-84
2023/05/16 04:33:44;;;;;;;11.05;0.63;;;5.30;99.90;;;;;;5047839;28;20059;-83
2023/05/16 04:36:10;;;;;;;0.00;0.00;;;5.50;99.90;;;;;;5037344;28;20045;-85
2023/05/16 04:38:36;;;;;;;0.10;0.10;;;5.40;99.90;;;;;;5031611;28;20045;-83
2023/05/16 04:41:02;;;;;;;0.00;0.00;;;5.50;99.90;;;;;;5032854;28;20084;-84
2023/05/16 04:43:28;;;;;;;0.25;0.25;;;5.60;99.90;;;;;;5030646;28;20517;-84
2023/05/16 04:45:54;;;;;;;0.00;0.00;;;5.60;99.90;;;;;;5030618;28;20442;-84
2023/05/16 04:48:20;;;;;;;0.45;0.45;;;5.70;99.90;;;;;;5028042;28;20208;-84
2023/05/16 04:50:45;;;;;;;0.00;0.00;;;5.70;99.90;;;;;;5030466;28;20497;-84
2023/05/16 04:53:13;;;;;;;0.05;0.05;;;5.90;99.90;;;;;;5030403;28;20046;-84
2023/05/16 04:55:39;;;;;;;0.00;0.00;;;6.00;99.90;;;;;;5037417;28;20059;-83
2023/05/16 04:58:05;;;;;;;0.65;0.65;;;6.20;99.90;;;;;;5049859;28;20049;-83
2023/05/16 05:00:31;;;;;;;0.20;0.20;;;6.50;99.90;;;;;;5048816;28;20084;-84
2023/05/16 05:02:57;;;;;;;0.00;0.00;;;6.70;99.90;;;;;;5046137;28;20084;-84
2023/05/16 05:05:23;;;;;;;1.23;0.40;;;7.00;99.90;;;;;;5045522;28;20598;-84
2023/05/16 05:07:48;;;;;;;1.10;0.52;;;7.10;99.90;;;;;;5025036;28;20408;-84
2023/05/16 05:10:14;;;;;;;0.00;0.00;;;7.40;99.90;;;;;;5026447;28;20391;-83
2023/05/16 05:12:39;;;;;;;0.00;0.00;;;7.90;99.90;;;;;;5025224;28;20085;-84
2023/05/16 05:15:05;;;;;;;0.00;0.00;;;8.90;1.00;;;;;;5029988;28;20097;-84
2023/05/16 05:17:31;;;;;;;0.15;0.15;;;9.90;1.00;;;;;;5046451;28;20575;-84
2023/05/16 05:19:57;;;;;;;0.55;0.55;;;10.80;99.90;;;;;;5047161;28;20172;-84
2023/05/16 05:22:22;;;;;;;0.00;0.00;;;11.70;99.90;;;;;;5048049;28;20045;-83
2023/05/16 05:24:48;;;;;;;0.00;0.00;;;11.70;33.80;;;;;;5068922;28;20055;-84
2023/05/16 05:27:14;;;;;;;0.17;0.10;;;11.20;99.90;;;;;;5065842;28;20057;-84
2023/05/16 05:29:40;;;;;;;0.20;0.20;;;10.80;52.80;;;;;;5070966;28;20037;-84
2023/05/16 05:32:07;;;;;;;0.47;0.47;;;10.40;99.90;;;;;;5069781;28;20092;-84
2023/05/16 05:34:32;;;;;;;0.63;0.28;;;10.20;99.90;;;;;;5067930;28;20044;-84
2023/05/16 05:36:58;;;;;;;0.00;0.00;;;10.40;1.00;;;;;;5057928;28;20029;-83
2023/05/16 05:39:25;;;;;;;0.00;0.00;;;11.10;1.00;;;;;;5050435;28;20037;-84
2023/05/16 05:41:51;;;;;;;0.00;0.00;;;12.00;1.00;;;;;;5035012;28;20140;-84
2023/05/16 05:44:16;;;;;;;0.60;0.60;;;12.70;1.00;;;;;;5029951;28;20065;-83
2023/05/16 05:46:42;;;;;;;0.00;0.00;;;13.20;99.90;;;;;;5031197;28;20060;-85
2023/05/16 05:49:08;;;;;;;0.45;0.28;;;14.10;99.90;;;;;;5029068;28;20492;-83
2023/05/16 05:51:34;;;;;;;6.13;2.95;;;14.80;99.90;;;;;;5029187;28;20114;-84
2023/05/16 05:54:01;;;;;;;0.15;0.15;;;14.90;99.90;;;;;;5040377;28;20464;-84
2023/05/16 05:56:27;;;;;;;0.35;0.25;;;15.60;99.90;;;;;;5049007;28;20128;-84
2023/05/16 05:58:53;;;;;;;0.63;0.50;;;15.80;99.90;;;;;;5043545;28;20128;-84
2023/05/16 06:01:20;;;;;;;0.00;0.00;;;15.80;99.90;;;;;;5050324;28;20053;-85
2023/05/16 06:03:46;;;;;;;0.00;0.00;;;15.70;99.90;;;;;;5047569;28;20064;-83
2023/05/16 06:06:13;;;;;;;0.00;0.00;;;15.90;99.90;;;;;;5049897;28;20045;-84
2023/05/16 06:08:39;;;;;;;1.33;0.38;;;16.20;99.90;;;;;;5049798;28;20044;-84
2023/05/16 06:11:05;;;;;;;0.00;0.00;;;16.30;99.90;;;;;;5049645;28;20095;-84
2023/05/16 06:13:31;;;;;;;0.20;0.17;;;16.70;99.90;;;;;;5050062;28;20487;-84
2023/05/16 06:15:56;;;;;;;0.00;0.00;;;16.60;99.90;;;;;;5049580;28;20051;-83
2023/05/16 06:18:22;;;;;;;0.57;0.30;;;16.60;99.90;;;;;;5047583;28;20617;-84
2023/05/16 06:20:48;;;;;;;0.17;0.13;;;16.90;99.90;;;;;;5047501;28;20051;-85
2023/05/16 06:23:13;;;;;;;0.10;0.10;;;17.10;99.90;;;;;;5046084;28;20119;-83
2023/05/16 06:25:39;;;;;;;0.00;0.00;;;17.20;99.90;;;;;;5047571;28;20041;-83
2023/05/16 06:28:05;;;;;;;0.35;0.30;;;18.20;99.90;;;;;;5048727;28;20075;-84
2023/05/16 06:30:31;;;;;;;0.43;0.38;;;18.70;99.90;;;;;;5050014;28;20098;-83
2023/05/16 06:32:56;;;;;;;2.80;0.47;;;18.10;99.90;;;;;;5050375;28;20067;-84
2023/05/16 06:35:22;;;;;;;0.00;0.00;;;17.60;99.90;;;;;;5051829;28;20037;-84
2023/05/16 06:37:48;;;;;;;0.00;0.00;;;16.00;94.40;;;;;;5051658;28;20124;-84
2023/05/16 06:40:13;;;;;;;0.20;0.20;;;14.50;68.90;;;;;;5050980;28;20048;-84
2023/05/16 06:42:39;;;;;;;1.27;0.68;;;13.50;59.90;;;;;;5052436;28;20442;-83
2023/05/16 06:45:05;;;;;;;0.40;0.25;;;12.70;52.50;;;;;;5050385;28;20076;-83
2023/05/16 06:47:31;;;;;;;0.00;0.00;;;11.90;78.00;;;;;;5052525;28;20075;-82
2023/05/16 06:49:57;;;;;;;0.13;0.10;;;11.70;99.90;;;;;;5053525;28;20041;-83
2023/05/16 06:52:22;;;;;;;0.05;0.05;;;12.20;99.90;;;;;;5052158;28;20079;-84
2023/05/16 06:54:48;;;;;;;0.00;0.00;;;12.60;98.50;;;;;;5037038;28;20042;-84
2023/05/16 06:57:14;;;;;;;0.00;0.00;;;12.50;99.90;;;;;;5042995;28;20057;-84
2023/05/16 06:59:39;;;;;;;0.00;0.00;;;13.60;99.90;;;;;;5039834;28;20052;-82
2023/05/16 07:02:05;;;;;;;0.00;0.00;;;14.00;90.80;;;;;;5038303;28;20049;-84
2023/05/16 07:04:33;;;;;;;0.00;0.00;;;15.10;77.80;;;;;;5041308;28;20049;-85
2023/05/16 07:06:58;;;;;;;0.00;0.00;;;15.30;62.20;;;;;;5030328;28;20049;-83
2023/05/16 07:09:24;;;;;;;0.38;0.25;;;15.90;77.30;;;;;;5033067;28;20059;-84
2023/05/16 07:11:50;;;;;;;0.10;0.10;;;15.90;86.00;;;;;;5038901;28;20050;-84
2023/05/16 07:14:15;;;;;;;0.25;0.22;;;16.20;80.60;;;;;;5037108;28;20116;-84
2023/05/16 07:16:41;;;;;;;0.10;0.08;;;17.20;93.70;;;;;;5049710;28;20076;-83
2023/05/16 07:19:07;;;;;;;1.00;0.50;;;17.00;73.70;;;;;;5053632;28;20084;-84
2023/05/16 07:21:32;;;;;;;0.35;0.28;;;17.70;92.80;;;;;;5051976;28;20065;-84
2023/05/16 07:23:58;;;;;;;0.88;0.30;;;17.30;85.90;;;;;;5052673;28;20045;-84
2023/05/16 07:26:24;;;;;;;0.00;0.00;;;17.30;93.00;;;;;;5050717;28;20446;-84
2023/05/16 07:28:49;;;;;;;0.00;0.00;;;18.00;90.40;;;;;;5052792;28;20053;-84
2023/05/16 07:31:16;;;;;;;0.00;0.00;;;18.20;89.70;;;;;;5055324;28;20048;-83
2023/05/16 07:33:41;;;;;;;2.53;0.45;;;18.40;87.70;;;;;;5055695;28;20111;-84
2023/05/16 07:36:07;;;;;;;0.00;0.00;;;18.50;92.10;;;;;;5055653;28;20044;-85
2023/05/16 07:38:33;;;;;;;0.55;0.35;;;18.40;69.70;;;;;;5056714;28;20048;-85
2023/05/16 07:40:59;;;;;;;0.75;0.38;;;18.20;79.80;;;;;;5055531;28;20409;-83
2023/05/16 07:43:25;;;;;;;0.00;0.00;;;18.50;75.80;;;;;;5054146;28;20072;-84
2023/05/16 07:45:51;;;;;;;0.10;0.10;;;18.80;82.50;;;;;;5054806;28;20037;-83
2023/05/16 07:48:17;;;;;;;0.00;0.00;;;17.20;30.00;;;;;;5056081;28;20053;-83
2023/05/16 07:50:43;;;;;;;0.10;0.10;;;15.60;1.00;;;;;;5056532;28;20044;-83
2023/05/16 07:53:08;;;;;;;0.30;0.30;;;15.10;1.00;;;;;;5039111;28;20056;-83
2023/05/16 07:55:34;;;;;;;0.00;0.00;;;14.10;1.00;;;;;;5055358;28;20063;-83
2023/05/16 07:58:00;;;;;;;0.00;0.00;;;14.30;1.00;;;;;;5058182;28;20140;-84
2023/05/16 08:00:26;;;;;;;10.85;1.90;;;13.30;1.00;;;;;;5056911;28;20084;-84
2023/05/16 08:02:52;;;;;;;0.10;0.10;;;13.20;1.00;;;;;;5058370;28;20045;-84
2023/05/16 08:05:17;;;;;;;3.00;1.55;;;14.60;3.80;;;;;;5065758;28;20037;-83
2023/05/16 08:07:43;;;;;;;0.20;0.10;;;14.80;1.90;;;;;;5070329;28;20130;-83
2023/05/16 08:10:09;;;;;;;0.85;0.65;;;14.20;1.00;;;;;;5069176;28;20025;-84
2023/05/16 08:12:35;;;;;;;0.57;0.55;;;14.40;6.90;;;;;;5068798;28;20072;-84
2023/05/16 08:15:03;;;;;;;0.00;0.00;;;15.70;21.70;;;;;;5068689;28;20080;-83
2023/05/16 08:17:28;;;;;;;0.08;0.08;;;16.70;26.60;;;;;;5067816;28;20048;-84
2023/05/16 08:19:55;;;;;;;4.10;0.10;;;17.40;20.90;;;;;;5066626;28;20048;-84
2023/05/16 08:22:21;;;;;;;0.10;0.10;;;17.50;30.50;;;;;;5055465;28;20136;-83
2023/05/16 08:24:49;;;;;;;0.28;0.25;;;18.00;38.70;;;;;;5049980;28;20148;-83
2023/05/16 08:27:15;;;;;;;2.80;0.63;;;18.80;61.70;;;;;;5048399;28;20087;-83
2023/05/16 08:29:40;;;;;;;0.28;0.10;;;19.80;82.40;;;;;;5048138;28;20080;-83
2023/05/16 08:32:09;;;;;;;0.35;0.20;;;19.60;65.40;;;;;;5047206;28;20041;-83
2023/05/16 08:34:35;;;;;;;1.00;0.65;;;20.20;29.50;;;;;;5045827;28;20151;-83
2023/05/16 08:37:01;;;;;;;0.13;0.13;;;21.10;60.90;;;;;;5046947;28;20048;-83
2023/05/16 08:39:26;;;;;;;0.85;0.35;;;18.90;17.10;;;;;;5068043;28;20037;-83
2023/05/16 08:41:52;;;;;;;0.10;0.10;;;18.10;4.10;;;;;;5070575;28;20029;-83
2023/05/16 08:44:20;;;;;;;0.00;0.00;;;15.80;16.60;;;;;;5071897;28;20041;-84
2023/05/16 08:46:53;;;;;;;0.00;0.00;;;13.60;62.00;;;;;;5071183;28;20033;-84
2023/05/16 08:49:20;;;;;;;0.03;0.03;;;12.00;27.80;;;;;;5071360;28;20047;-83
2023/05/16 08:51:48;;;;;;;0.17;0.17;;;11.90;9.20;;;;;;5071182;28;20032;-83
2023/05/16 08:54:15;;;;;;;0.17;0.17;;;13.10;41.20;;;;;;5071024;28;20071;-83
2023/05/16 08:56:42;;;;;;;0.32;0.17;;;14.80;65.50;;;;;;5070715;28;20052;-83
2023/05/16 08:59:09;;;;;;;0.22;0.17;;;16.20;72.20;;;;;;5067028;28;20078;-84
2023/05/16 09:01:35;;;;;;;0.00;0.00;;;17.00;59.00;;;;;;5062479;28;20096;-83
2023/05/16 09:04:03;;;;;;;0.35;0.35;;;17.90;93.80;;;;;;5063224;28;20063;-84
2023/05/16 09:06:29;;;;;;;0.00;0.00;;;18.80;73.90;;;;;;5061102;28;20041;-84
2023/05/16 09:08:57;;;;;;;0.00;0.00;;;20.10;99.90;;;;;;5059601;28;20067;-84
2023/05/16 09:11:23;;;;;;;1.13;0.85;;;20.90;99.70;;;;;;5052642;28;20109;-85
2023/05/16 09:13:49;;;;;;;0.28;0.13;;;20.30;88.00;;;;;;5054781;28;20097;-83
2023/05/16 09:16:17;;;;;;;0.00;0.00;;;19.70;66.30;;;;;;5055219;28;20062;-83
2023/05/16 09:18:55;;;;;;;0.25;0.20;;;17.60;2.30;;;;;;5055849;28;20067;-83
2023/05/16 09:21:22;;;;;;;1.35;0.63;;;17.10;2.50;;;;;;5055966;28;20048;-84
2023/05/16 09:23:49;;;;;;;0.10;0.05;;;17.80;8.80;;;;;;5054056;28;20044;-82
2023/05/16 09:26:15;;;;;;;1.20;0.43;;;18.10;11.90;;;;;;5053632;28;20076;-82
2023/05/16 09:28:42;;;;;;;0.05;0.05;;;18.00;1.00;;;;;;5054154;28;20045;-83
2023/05/16 09:31:25;;;;;;;0.00;0.00;;;19.00;1.90;;;;;;5054713;28;20637;-83
2023/05/16 09:34:00;;;;;;;0.00;0.00;;;19.30;32.80;;;;;;5053488;28;20041;-84
2023/05/16 09:36:26;;;;;;;0.10;0.10;;;19.80;29.90;;;;;;5055681;28;20040;-84
2023/05/16 09:38:52;;;;;;;0.98;0.63;;;18.80;8.50;;;;;;5055175;28;20059;-84
2023/05/16 09:41:18;;;;;;;0.00;0.00;;;18.70;1.00;;;;;;5055377;28;20036;-84
2023/05/16 09:43:43;;;;;;;0.57;0.50;;;19.40;17.80;;;;;;5055857;28;20396;-84
2023/05/16 09:46:16;;;;;;;0.28;0.28;;;19.70;26.30;;;;;;5056158;28;20068;-83
2023/05/16 09:48:49;;;;;;;0.20;0.10;;;20.10;21.00;;;;;;5056564;28;20056;-84
2023/05/16 09:51:20;;;;;;;0.10;0.10;;;20.40;30.60;;;;;;5055146;28;20080;-83
2023/05/16 09:53:46;;;;;;;0.05;0.05;;;20.90;31.50;;;;;;5056103;28;20419;-83
2023/05/16 09:56:13;;;;;;;2.67;1.10;;;19.90;1.00;;;;;;5054589;28;20049;-83
2023/05/16 09:58:41;;;;;;;0.45;0.45;;;18.90;1.00;;;;;;5053631;28;20048;-83
2023/05/16 10:01:07;;;;;;;2.92;1.48;;;19.20;1.00;;;;;;5056519;28;20044;-83
2023/05/16 10:03:35;;;;;;;0.10;0.10;;;19.20;1.80;;;;;;5055656;28;20045;-83
2023/05/16 10:06:02;;;;;;;1.25;0.60;;;18.70;1.00;;;;;;5053379;28;20503;-79
2023/05/16 10:08:30;;;;;;;0.65;0.40;;;19.10;1.00;;;;;;5053460;28;20545;-84
2023/05/16 10:10:56;;;;;;;0.15;0.15;;;17.70;1.00;;;;;;5032791;28;20055;-84
2023/05/16 10:13:32;;;;;;;0.00;0.00;;;17.40;1.00;;;;;;5035209;28;20081;-83
2023/05/16 10:16:00;;;;;;;0.00;0.00;;;16.40;1.00;;;;;;5015713;28;20084;-84
2023/05/16 10:18:31;;;;;;;0.03;0.03;;;17.30;1.00;;;;;;5034216;28;20050;-83
2023/05/16 10:21:03;;;;;;;0.30;0.28;;;17.00;1.00;;;;;;5032217;28;20068;-81
2023/05/16 10:23:31;;;;;;;0.38;0.38;;;16.60;1.00;;;;;;5033630;28;20045;-83
2023/05/16 10:25:59;;;;;;;0.03;0.03;;;16.60;1.00;;;;;;5031820;28;20073;-83
2023/05/16 10:28:25;;;;;;;0.08;0.08;;;16.20;1.00;;;;;;5028866;28;20057;-84
2023/05/16 10:30:54;;;;;;;0.00;0.00;;;16.80;1.00;;;;;;5028018;28;20107;-83
2023/05/16 10:33:19;;;;;;;1.60;0.60;;;17.10;1.00;;;;;;5029152;28;20411;-83
2023/05/16 10:35:45;;;;;;;0.50;0.20;;;17.00;1.00;;;;;;5027905;28;20052;-84
2023/05/16 10:38:15;;;;;;;0.22;0.22;;;16.40;1.00;;;;;;5028015;28;20049;-83
2023/05/16 10:40:42;;;;;;;0.20;0.15;;;15.60;1.00;;;;;;5030440;28;20049;-82
2023/05/16 10:43:08;;;;;;;0.13;0.13;;;14.30;1.00;;;;;;5028478;28;20037;-83
2023/05/16 10:45:39;;;;;;;0.30;0.22;;;14.30;1.00;;;;;;5027274;28;20103;-83
2023/05/16 10:48:07;;;;;;;0.00;0.00;;;15.30;1.00;;;;;;5025898;28;20128;-84
2023/05/16 10:50:38;;;;;;;0.10;0.10;;;14.90;1.00;;;;;;5027032;28;20112;-84
2023/05/16 10:53:18;;;;;;;0.30;0.22;;;15.60;1.00;;;;;;5028096;28;20103;-84
2023/05/16 10:56:07;;;;;;;0.00;0.00;;;15.90;1.00;;;;;;5024839;28;20546;-83
2023/05/16 10:58:39;;;;;;;18.73;1.35;;;16.20;1.00;;;;;;5022455;28;20151;-84
2023/05/16 11:01:19;;;;;;;0.65;0.52;;;16.30;1.00;;;;;;5026752;28;20053;-83
2023/05/16 11:03:57;;;;;;;0.47;0.22;;;16.90;1.00;;;;;;5030773;28;20052;-83
2023/05/16 11:06:41;;;;;;;0.00;0.00;;;17.40;1.00;;;;;;5030433;28;20045;-84
2023/05/16 11:09:09;;;;;;;0.20;0.20;;;17.30;1.00;;;;;;5027593;28;20044;-83
2023/05/16 11:11:54;;;;;;;0.00;0.00;;;16.50;1.00;;;;;;5025452;28;20050;-83
2023/05/16 11:14:36;;;;;;;1.85;0.35;;;15.90;1.00;;;;;;5025701;28;20104;-85
2023/05/16 11:17:06;;;;;;;0.00;0.00;;;16.00;1.00;;;;;;5025508;28;20052;-84
2023/05/16 11:19:41;;;;;;;0.00;0.00;;;16.30;1.00;;;;;;5026615;28;20042;-83
2023/05/16 11:22:08;;;;;;;0.00;0.00;;;16.30;1.00;;;;;;5025410;28;20076;-83
2023/05/16 11:24:35;;;;;;;0.17;0.13;;;16.10;1.00;;;;;;5036386;28;20107;-83
2023/05/16 11:27:03;;;;;;;0.20;0.20;;;16.30;1.00;;;;;;5044023;28;20041;-83
2023/05/16 11:29:36;;;;;;;0.00;0.00;;;16.60;1.00;;;;;;5045131;28;20049;-82
2023/05/16 11:32:05;;;;;;;0.10;0.10;;;17.30;1.00;;;;;;5044868;28;20080;-83
2023/05/16 11:34:34;;;;;;;5.30;0.28;;;17.60;1.00;;;;;;5044584;28;20049;-83
2023/05/16 11:37:01;;;;;;;0.03;0.03;;;17.70;1.00;;;;;;5044161;28;20049;-82
2023/05/16 11:39:29;;;;;;;0.22;0.20;;;17.40;1.00;;;;;;5044785;28;20041;-84
2023/05/16 11:41:55;;;;;;;0.75;0.65;;;17.50;1.00;;;;;;5047788;28;20408;-84
2023/05/16 11:44:20;;;;;;;0.10;0.10;;;17.50;1.00;;;;;;5045054;28;20474;-84
2023/05/16 11:46:46;;;;;;;1.85;1.00;;;18.60;1.00;;;;;;5044072;28;20068;-83
2023/05/16 11:49:12;;;;;;;0.70;0.22;;;17.20;1.00;;;;;;5044943;28;20094;-84
2023/05/16 11:51:39;;;;;;;0.20;0.13;;;17.00;1.00;;;;;;5043796;28;20055;-84
2023/05/16 11:54:06;;;;;;;0.40;0.30;;;17.10;1.00;;;;;;5063749;28;20233;-83
2023/05/16 11:56:35;;;;;;;0.00;0.00;;;17.20;1.00;;;;;;5062085;28;20057;-83
2023/05/16 11:59:01;;;;;;;0.08;0.08;;;16.70;1.00;;;;;;5053405;28;20076;-84
2023/05/16 12:01:37;;;;;;;0.57;0.45;;;16.30;1.00;;;;;;5067816;28;20040;-84
2023/05/16 12:04:11;;;;;;;0.80;0.63;;;16.20;1.00;;;;;;5071352;28;20052;-84
2023/05/16 12:06:42;;;;;;;0.63;0.38;;;16.60;1.00;;;;;;5071920;28;20349;-83
2023/05/16 12:09:12;;;;;;;3.50;1.25;;;16.00;1.00;;;;;;5070965;28;20021;-84
2023/05/16 12:11:40;;;;;;;0.17;0.13;;;15.80;1.00;;;;;;5071789;28;20029;-83
2023/05/16 12:14:07;;;;;;;23.38;2.08;;;15.90;1.00;;;;;;5072126;28;20037;-83
2023/05/16 12:16:33;;;;;;;0.00;0.00;;;16.90;1.00;;;;;;5056053;28;20127;-83
2023/05/16 12:19:00;;;;;;;0.22;0.22;;;18.00;1.00;;;;;;5052210;28;20533;-83
2023/05/16 12:21:26;;;;;;;0.10;0.10;;;18.10;1.00;;;;;;5051792;28;20402;-83
2023/05/16 12:23:57;;;;;;;1.08;0.68;;;17.50;1.00;;;;;;5052609;28;20056;-84
2023/05/16 12:26:31;;;;;;;0.20;0.20;;;17.40;1.00;;;;;;5049752;28;20052;-83
2023/05/16 12:28:59;;;;;;;2.38;0.20;;;17.30;1.00;;;;;;5050272;28;20438;-84
2023/05/16 12:31:25;;;;;;;0.08;0.08;;;16.90;1.00;;;;;;5049751;28;20119;-84
2023/05/16 12:33:54;;;;;;;4.65;0.80;;;18.30;1.00;;;;;;5051145;28;20120;-83
2023/05/16 12:36:20;;;;;;;0.32;0.32;;;17.90;1.00;;;;;;5050181;28;20074;-84
2023/05/16 12:38:47;;;;;;;0.82;0.57;;;18.10;1.00;;;;;;5051117;28;20040;-83
2023/05/16 12:41:22;;;;;;;0.10;0.10;;;17.70;1.00;;;;;;5053248;28;20077;-83
2023/05/16 12:43:48;;;;;;;4.85;1.38;;;18.80;1.00;;;;;;5056181;28;20041;-83
2023/05/16 12:46:14;;;;;;;0.13;0.13;;;19.30;1.00;;;;;;5052229;28;20044;-84
2023/05/16 12:48:44;;;;;;;1.15;0.47;;;19.30;1.00;;;;;;5053480;28;20055;-83
2023/05/16 12:51:15;;;;;;;0.20;0.17;;;19.70;1.00;;;;;;5052235;28;20045;-84
2023/05/16 12:53:43;;;;;;;0.38;0.38;;;18.90;1.00;;;;;;5050049;28;20112;-84
2023/05/16 12:56:09;;;;;;;0.17;0.17;;;17.90;1.00;;;;;;5048153;28;20049;-84